.
WxDataArchive / Data Records for 2012-09-14
2012-09-13 September 2012 2012-09-15

Data Records for Friday, 14 September 2012

Time	Temp	Chill	HIndex	Humid	Dewpt	 Wind 	HiWind	WindDir	Rain 	Barom 
-----	----	-----	------	-----	-----	------	------	-------	-----	----- 
00:00	67.4	67.4	67.4	76	59.6	0	0	---	0.00	30.202 
00:05	67.4	67.4	67.4	76	59.6	0	0	---	0.00	30.202 
00:10	67.3	67.3	67.3	76	59.5	0	3	292	0.00	30.202 
00:15	67.3	67.3	67.3	76	59.5	0	1	292	0.00	30.202 
00:20	67.3	67.3	67.3	76	59.5	0	2	292	0.00	30.202 
00:25	67.3	67.3	67.3	76	59.5	0	1	338	0.00	30.202 
00:30	67.1	67.1	67.1	76	59.3	0	2	338	0.00	30.197 
00:35	66.9	66.9	66.9	77	59.4	0	1	338	0.00	30.197 
00:40	66.8	66.8	66.8	78	59.7	0	1	338	0.00	30.197 
00:45	66.4	66.4	66.4	79	59.7	0	1	338	0.00	30.192 
00:50	66.3	66.3	66.3	79	59.6	0	1	338	0.00	30.192 
00:55	66.1	66.1	66.1	80	59.7	0	2	338	0.00	30.192 
01:00	66.0	66.0	66.0	81	60.0	0	1	338	0.00	30.193 
01:05	65.8	65.8	65.8	81	59.8	0	1	338	0.00	30.193 
01:10	65.6	65.6	65.6	81	59.6	0	1	338	0.00	30.193 
01:15	65.5	65.5	65.5	82	59.9	0	1	338	0.00	30.191 
01:20	65.3	65.3	65.3	82	59.7	0	0	---	0.00	30.191 
01:25	65.2	65.2	65.2	83	59.9	0	1	338	0.00	30.191 
01:30	65.2	65.2	65.2	83	59.9	0	1	338	0.00	30.189 
01:35	65.0	65.0	65.0	84	60.0	0	0	---	0.00	30.189 
01:40	64.8	64.8	64.8	84	59.8	0	1	338	0.00	30.189 
01:45	64.7	64.7	64.7	84	59.7	0	1	338	0.00	30.194 
01:50	64.7	64.7	64.7	84	59.7	0	1	338	0.00	30.194 
01:55	64.5	64.5	64.5	85	59.9	0	1	338	0.00	30.194 
02:00	64.3	64.3	64.3	85	59.7	0	2	338	0.00	30.199 
02:05	64.2	64.2	64.2	85	59.6	0	2	338	0.00	30.199 
02:10	64.0	64.0	64.0	85	59.4	0	2	338	0.00	30.199 
02:15	63.9	63.9	63.9	85	59.3	0	1	338	0.00	30.203 
02:20	63.7	63.7	63.7	86	59.4	0	1	338	0.00	30.203 
02:25	63.5	63.5	63.5	86	59.2	0	1	338	0.00	30.203 
02:30	63.2	63.2	63.2	86	58.9	0	2	338	0.00	30.204 
02:35	62.9	62.9	62.9	86	58.6	0	2	338	0.00	30.204 
02:40	62.6	62.6	62.6	86	58.3	1	4	248	0.00	30.204 
02:45	62.4	62.4	62.4	87	58.5	0	2	248	0.00	30.205 
02:50	62.3	62.3	62.3	87	58.4	0	2	248	0.00	30.205 
02:55	62.3	62.3	62.3	87	58.4	0	2	248	0.00	30.205 
03:00	62.1	62.1	62.1	87	58.2	1	3	248	0.00	30.205 
03:05	61.8	61.8	61.8	87	57.9	1	2	248	0.00	30.205 
03:10	61.8	61.8	61.8	88	58.2	0	1	248	0.00	30.205 
03:15	61.6	61.6	61.6	88	58.0	0	2	248	0.00	30.206 
03:20	61.5	61.5	61.5	88	57.9	1	3	248	0.00	30.206 
03:25	61.5	61.5	61.5	88	57.9	0	3	248	0.00	30.206 
03:30	61.3	61.3	61.3	88	57.7	1	3	270	0.00	30.204 
03:35	61.2	61.2	61.2	88	57.6	1	4	315	0.00	30.204 
03:40	61.0	61.0	61.0	88	57.4	0	2	270	0.00	30.204 
03:45	61.0	61.0	61.0	88	57.4	1	4	270	0.00	30.207 
03:50	60.9	60.9	60.9	88	57.3	1	4	292	0.00	30.207 
03:55	60.7	60.7	60.7	88	57.1	1	4	292	0.00	30.207 
04:00	60.5	60.5	60.5	88	56.9	2	6	292	0.00	30.208 
04:05	60.4	60.4	60.4	88	56.8	1	6	270	0.00	30.208 
04:10	60.2	60.2	60.2	88	56.6	1	3	270	0.00	30.208 
04:15	60.2	60.2	60.2	88	56.6	0	1	270	0.00	30.202 
04:20	60.2	60.2	60.2	88	56.6	1	3	270	0.00	30.202 
04:25	60.1	60.1	60.1	88	56.5	1	4	315	0.00	30.202 
04:30	60.1	60.1	60.1	88	56.5	1	3	292	0.00	30.193 
04:35	60.1	60.1	60.1	88	56.5	1	3	292	0.00	30.193 
04:40	60.1	60.1	60.1	88	56.5	0	2	292	0.00	30.193 
04:45	60.1	60.1	60.1	88	56.5	0	2	292	0.00	30.192 
04:50	59.9	59.9	59.9	88	56.3	0	2	292	0.00	30.192 
04:55	59.9	59.9	59.9	88	56.3	0	2	292	0.00	30.192 
05:00	59.9	59.9	59.9	88	56.3	0	2	292	0.00	30.201 
05:05	59.9	59.9	59.9	88	56.3	0	2	292	0.00	30.201 
05:10	59.9	59.9	59.9	88	56.3	0	2	292	0.00	30.201 
05:15	59.8	59.8	59.8	88	56.2	0	2	292	0.00	30.200 
05:20	59.6	59.6	59.6	88	56.0	0	3	292	0.00	30.200 
05:25	59.6	59.6	59.6	88	56.0	0	3	292	0.00	30.200 
05:30	59.5	59.5	59.5	88	55.9	0	2	292	0.00	30.200 
05:35	59.3	59.3	59.3	88	55.7	1	4	292	0.00	30.200 
05:40	59.3	59.3	59.3	88	55.7	0	4	292	0.00	30.200 
05:45	59.2	59.2	59.2	88	55.6	1	3	45	0.00	30.201 
05:50	59.2	59.2	59.2	88	55.6	0	2	270	0.00	30.201 
05:55	59.2	59.2	59.2	88	55.6	0	1	270	0.00	30.201 
06:00	59.2	59.2	59.2	88	55.6	0	2	270	0.00	30.197 
06:05	59.2	59.2	59.2	88	55.6	0	2	270	0.00	30.197 
06:10	59.0	59.0	59.0	88	55.4	0	3	270	0.00	30.197 
06:15	59.0	59.0	59.0	88	55.4	0	2	338	0.00	30.208 
06:20	58.9	58.9	58.9	89	55.7	1	3	338	0.00	30.208 
06:25	58.7	58.7	58.7	89	55.5	1	3	338	0.00	30.208 
06:30	58.7	58.7	58.7	89	55.5	0	4	338	0.00	30.209 
06:35	58.6	58.6	58.6	90	55.7	0	2	270	0.00	30.209 
06:40	58.4	58.4	58.4	90	55.5	0	1	270	0.00	30.209 
06:45	58.3	58.3	58.3	90	55.4	0	3	292	0.00	30.212 
06:50	58.1	58.1	58.1	90	55.2	0	2	292	0.00	30.212 
06:55	58.1	58.1	58.1	91	55.5	0	3	292	0.00	30.212 
07:00	58.0	58.0	58.0	91	55.4	0	2	292	0.00	30.222 
07:05	57.6	57.6	57.6	91	55.0	1	3	292	0.00	30.222 
07:10	57.5	57.5	57.5	91	54.9	0	2	292	0.00	30.222 
07:15	57.3	57.3	57.3	91	54.7	1	3	292	0.01	30.223 
07:20	57.2	57.2	57.2	91	54.6	1	4	270	0.00	30.223 
07:25	56.9	56.9	56.9	91	54.3	1	3	270	0.00	30.223 
07:30	56.9	56.9	56.9	92	54.6	0	1	270	0.00	30.231 
07:35	56.7	56.7	56.7	92	54.4	1	4	292	0.00	30.231 
07:40	56.7	56.7	56.7	92	54.4	0	3	292	0.00	30.231 
07:45	56.6	56.6	56.6	92	54.3	1	4	292	0.00	30.240 
07:50	56.2	56.2	56.2	92	53.9	1	6	292	0.00	30.240 
07:55	56.0	56.0	56.0	92	53.7	1	4	292	0.00	30.240 
08:00	55.9	55.9	55.9	92	53.6	1	4	292	0.01	30.246 
08:05	55.7	55.7	55.7	92	53.4	0	3	315	0.02	30.246 
08:10	55.6	55.6	55.6	92	53.3	1	4	315	0.02	30.246 
08:15	55.6	55.6	55.6	92	53.3	1	4	315	0.01	30.246 
08:20	55.4	55.4	55.4	92	53.1	1	5	292	0.00	30.246 
08:25	55.4	55.4	55.4	93	53.4	0	3	292	0.01	30.246 
08:30	55.3	55.3	55.3	93	53.3	0	4	292	0.02	30.255 
08:35	55.3	55.3	55.3	93	53.3	1	5	270	0.01	30.255 
08:40	55.1	55.1	55.1	93	53.1	1	4	292	0.01	30.255 
08:45	55.0	55.0	55.0	93	53.0	0	2	292	0.01	30.263 
08:50	55.0	55.0	55.0	93	53.0	1	4	292	0.02	30.263 
08:55	54.8	54.8	54.8	93	52.8	0	3	315	0.01	30.263 
09:00	54.7	54.7	54.7	94	53.0	0	1	315	0.01	30.268 
09:05	54.4	54.4	54.4	94	52.7	0	3	315	0.01	30.268 
09:10	54.2	54.2	54.2	94	52.5	0	2	315	0.01	30.268 
09:15	54.1	54.1	54.1	94	52.4	0	3	315	0.01	30.270 
09:20	53.9	53.9	53.9	94	52.2	1	4	292	0.01	30.270 
09:25	53.9	53.9	53.9	94	52.2	0	2	292	0.00	30.270 
09:30	53.9	53.9	53.9	94	52.2	1	3	292	0.00	30.280 
09:35	53.8	53.8	53.8	94	52.1	0	4	292	0.01	30.280 
09:40	53.9	53.9	53.9	94	52.2	0	1	292	0.00	30.280 
09:45	53.9	53.9	53.9	94	52.2	0	2	292	0.00	30.282 
09:50	53.8	53.8	53.8	94	52.1	0	1	292	0.00	30.282 
09:55	53.9	53.9	53.9	94	52.2	0	1	292	0.01	30.282 
10:00	53.9	53.9	53.9	94	52.2	0	2	292	0.01	30.285 
10:05	54.1	54.1	54.1	94	52.4	0	1	292	0.00	30.285 
10:10	53.9	53.9	53.9	94	52.2	0	1	292	0.00	30.285 
10:15	54.1	54.1	54.1	94	52.4	0	1	292	0.01	30.292 
10:20	54.1	54.1	54.1	95	52.7	0	0	---	0.00	30.292 
10:25	54.1	54.1	54.1	95	52.7	0	1	292	0.00	30.292 
10:30	54.1	54.1	54.1	94	52.4	0	3	292	0.00	30.293 
10:35	54.1	54.1	54.1	94	52.4	0	1	292	0.00	30.293 
10:40	54.2	54.2	54.2	95	52.8	0	2	270	0.00	30.293 
10:45	54.2	54.2	54.2	94	52.5	0	2	270	0.00	30.297 
10:50	54.2	54.2	54.2	94	52.5	0	2	270	0.00	30.297 
10:55	54.4	54.4	54.4	95	53.0	0	1	270	0.00	30.297 
11:00	54.5	54.5	54.5	94	52.8	0	1	270	0.00	30.303 
11:05	54.4	54.4	54.4	94	52.7	0	2	270	0.00	30.303 
11:10	54.4	54.4	54.4	94	52.7	0	2	270	0.00	30.303 
11:15	54.4	54.4	54.4	94	52.7	0	1	270	0.00	30.309 
11:20	54.4	54.4	54.4	94	52.7	0	1	270	0.00	30.309 
11:25	54.5	54.5	54.5	94	52.8	0	2	270	0.00	30.309 
11:30	54.4	54.4	54.4	94	52.7	0	3	270	0.00	30.314 
11:35	54.5	54.5	54.5	94	52.8	0	3	270	0.00	30.314 
11:40	54.7	54.7	54.7	94	53.0	0	1	270	0.00	30.314 
11:45	54.8	54.8	54.8	94	53.1	0	2	270	0.00	30.309 
11:50	55.1	55.1	55.1	94	53.4	0	1	270	0.00	30.309 
11:55	55.3	55.3	55.3	93	53.3	0	1	270	0.00	30.309 
12:00	55.6	55.6	55.6	93	53.6	0	1	270	0.00	30.311 
12:05	55.7	55.7	55.7	93	53.7	0	1	270	0.00	30.311 
12:10	56.0	56.0	56.0	92	53.7	0	1	270	0.00	30.311 
12:15	56.5	56.5	56.5	92	54.2	0	2	270	0.00	30.308 
12:20	57.6	57.6	57.6	92	55.3	0	1	270	0.00	30.308 
12:25	58.7	58.7	58.7	91	56.1	0	3	270	0.00	30.308 
12:30	59.2	59.2	59.2	87	55.3	1	3	135	0.00	30.302 
12:35	59.3	59.3	59.3	84	54.5	0	1	292	0.00	30.302 
12:40	60.4	60.4	60.4	85	55.9	0	1	292	0.00	30.302 
12:45	61.3	61.3	61.3	82	55.8	0	3	292	0.00	30.298 
12:50	61.8	61.8	61.8	79	55.2	1	4	270	0.00	30.298 
12:55	62.4	62.4	62.4	77	55.1	1	3	270	0.00	30.298 
13:00	63.1	63.1	63.1	73	54.3	1	3	68	0.00	30.293 
13:05	63.5	63.5	63.5	71	53.9	1	3	68	0.00	30.293 
13:10	64.2	64.2	64.2	69	53.8	0	1	68	0.00	30.293 
13:15	64.5	64.5	64.5	66	52.9	1	4	90	0.00	30.288 
13:20	64.5	64.5	64.5	68	53.7	0	4	68	0.00	30.288 
13:25	64.8	64.8	64.8	67	53.6	0	3	68	0.00	30.288 
13:30	65.0	65.0	65.0	63	52.1	1	3	68	0.00	30.281 
13:35	65.2	65.2	65.2	65	53.1	1	3	315	0.00	30.281 
13:40	65.3	65.3	65.3	64	52.8	1	3	315	0.00	30.281 
13:45	65.6	65.6	65.6	65	53.5	0	4	90	0.00	30.277 
13:50	65.6	65.6	65.6	65	53.5	1	3	248	0.00	30.277 
13:55	66.0	66.0	66.0	63	53.0	0	3	248	0.00	30.277 
14:00	66.1	66.1	66.1	56	49.9	2	5	292	0.00	30.277 
14:05	66.4	66.4	66.4	54	49.2	2	5	292	0.00	30.277 
14:10	66.8	66.8	66.8	51	48.1	1	5	270	0.00	30.277 
14:15	66.9	66.9	66.9	50	47.6	1	4	270	0.00	30.271 
14:20	67.1	67.1	67.1	50	47.8	0	3	270	0.00	30.271 
14:25	67.1	67.1	67.1	49	47.3	1	3	270	0.00	30.271 
14:30	67.6	67.6	67.6	49	47.8	1	4	270	0.00	30.271 
14:35	68.1	68.1	68.1	50	48.7	2	5	270	0.00	30.271 
14:40	68.6	68.6	68.6	52	50.3	0	1	270	0.00	30.271 
14:45	68.9	68.9	68.9	48	48.4	1	3	270	0.00	30.262 
14:50	68.9	68.9	68.9	52	50.5	0	2	338	0.00	30.262 
14:55	69.4	69.4	69.4	49	49.4	0	3	338	0.00	30.262 
15:00	69.6	69.6	69.6	47	48.5	0	4	112	0.00	30.256 
15:05	69.6	69.6	69.6	46	47.9	1	4	112	0.00	30.256 
15:10	69.6	69.6	69.6	48	49.0	1	3	315	0.00	30.256 
15:15	69.6	69.6	69.6	43	46.1	1	4	338	0.00	30.262 
15:20	69.9	69.9	69.9	43	46.4	1	3	112	0.00	30.262 
15:25	70.1	70.1	70.1	43	46.6	1	2	135	0.00	30.262 
15:30	70.3	70.3	70.3	43	46.7	1	4	112	0.00	30.259 
15:35	70.1	70.1	70.1	41	45.3	2	3	292	0.00	30.259 
15:40	70.3	70.3	70.3	41	45.5	0	2	292	0.00	30.259 
15:45	70.4	70.4	70.4	42	46.2	1	2	292	0.00	30.252 
15:50	70.6	70.6	70.6	41	45.7	1	3	68	0.00	30.252 
15:55	70.6	70.6	70.6	42	46.4	1	5	292	0.00	30.252 
16:00	70.6	70.6	70.6	43	47.0	1	2	338	0.00	30.249 
16:05	70.6	70.6	70.6	39	44.4	1	3	338	0.00	30.249 
16:10	70.6	70.6	70.6	39	44.4	1	3	292	0.00	30.249 
16:15	70.6	70.6	70.6	43	47.0	1	4	90	0.00	30.248 
16:20	70.8	70.8	70.8	44	47.8	0	2	90	0.00	30.248 
16:25	70.8	70.8	70.8	40	45.3	1	2	315	0.00	30.248 
16:30	70.6	70.6	70.6	40	45.1	0	2	315	0.00	30.249 
16:35	70.6	70.6	70.6	42	46.4	0	2	338	0.00	30.249 
16:40	70.6	70.6	70.6	41	45.7	0	2	338	0.00	30.249 
16:45	70.8	70.8	70.8	41	45.9	1	4	338	0.00	30.247 
16:50	70.9	70.9	70.9	41	46.0	0	3	338	0.00	30.247 
16:55	70.8	70.8	70.8	40	45.3	1	3	315	0.00	30.247 
17:00	70.6	70.6	70.6	38	43.7	1	4	315	0.00	30.250 
17:05	70.4	70.4	70.4	38	43.6	1	4	292	0.00	30.250 
17:10	70.4	70.4	70.4	39	44.2	1	3	292	0.00	30.250 
17:15	70.4	70.4	70.4	39	44.2	1	3	292	0.00	30.252 
17:20	70.6	70.6	70.6	40	45.1	1	3	292	0.00	30.252 
17:25	70.8	70.8	70.8	40	45.3	1	4	292	0.00	30.252 
17:30	70.8	70.8	70.8	37	43.2	1	4	292	0.00	30.251 
17:35	70.8	70.8	70.8	41	45.9	1	3	292	0.00	30.251 
17:40	70.8	70.8	70.8	41	45.9	1	3	112	0.00	30.251 
17:45	70.8	70.8	70.8	38	43.9	1	3	112	0.00	30.250 
17:50	70.9	70.9	70.9	39	44.7	2	5	338	0.00	30.250 
17:55	70.9	70.9	70.9	41	46.0	0	2	292	0.00	30.250 
18:00	70.8	70.8	70.8	41	45.9	0	2	292	0.00	30.253 
18:05	70.8	70.8	70.8	40	45.3	1	2	292	0.00	30.253 
18:10	70.6	70.6	70.6	39	44.4	1	2	292	0.00	30.253 
18:15	70.3	70.3	70.3	41	45.5	0	2	292	0.00	30.261 
18:20	70.1	70.1	70.1	40	44.6	1	3	292	0.00	30.261 
18:25	70.1	70.1	70.1	43	46.6	0	2	292	0.00	30.261 
18:30	69.9	69.9	69.9	44	47.0	0	1	292	0.00	30.259 
18:35	69.6	69.6	69.6	45	47.3	0	1	292	0.00	30.259 
18:40	69.4	69.4	69.4	44	46.5	0	2	292	0.00	30.259 
18:45	69.3	69.3	69.3	46	47.6	0	1	292	0.00	30.267 
18:50	69.1	69.1	69.1	44	46.3	0	3	292	0.00	30.267 
18:55	69.1	69.1	69.1	45	46.9	0	1	292	0.00	30.267 
19:00	68.9	68.9	68.9	45	46.7	0	1	292	0.00	30.267 
19:05	68.8	68.8	68.8	45	46.6	0	0	---	0.00	30.267 
19:10	68.6	68.6	68.6	47	47.6	0	0	---	0.00	30.267 
19:15	68.4	68.4	68.4	46	46.8	0	1	292	0.00	30.267 
19:20	68.1	68.1	68.1	47	47.1	0	0	---	0.00	30.267 
19:25	67.9	67.9	67.9	48	47.5	0	0	---	0.00	30.267 
19:30	67.6	67.6	67.6	48	47.2	0	0	---	0.00	30.263 
19:35	67.1	67.1	67.1	48	46.7	0	0	---	0.00	30.263 
19:40	66.8	66.8	66.8	49	47.0	0	0	---	0.00	30.263 
19:45	66.4	66.4	66.4	50	47.2	0	0	---	0.00	30.264 
19:50	66.1	66.1	66.1	50	46.9	0	0	---	0.00	30.264 
19:55	65.6	65.6	65.6	52	47.5	0	0	---	0.00	30.264 
20:00	65.2	65.2	65.2	52	47.1	0	0	---	0.00	30.269 
20:05	64.8	64.8	64.8	53	47.3	0	0	---	0.00	30.269 
20:10	64.5	64.5	64.5	54	47.5	0	0	---	0.00	30.269 
20:15	64.2	64.2	64.2	56	48.2	0	0	---	0.00	30.273 
20:20	63.7	63.7	63.7	56	47.7	0	0	---	0.00	30.273 
20:25	63.5	63.5	63.5	57	48.0	0	0	---	0.00	30.273 
20:30	63.2	63.2	63.2	58	48.2	0	0	---	0.00	30.275 
20:35	62.7	62.7	62.7	58	47.7	0	0	---	0.00	30.275 
20:40	62.4	62.4	62.4	59	47.9	0	0	---	0.00	30.275 
20:45	62.1	62.1	62.1	60	48.0	0	0	---	0.00	30.279 
20:50	61.8	61.8	61.8	59	47.3	0	0	---	0.00	30.279 
20:55	61.8	61.8	61.8	60	47.8	0	0	---	0.00	30.279 
21:00	61.6	61.6	61.6	60	47.6	0	0	---	0.00	30.290 
21:05	61.6	61.6	61.6	59	47.1	0	0	---	0.00	30.290 
21:10	61.5	61.5	61.5	60	47.5	0	0	---	0.00	30.290 
21:15	61.2	61.2	61.2	61	47.6	0	0	---	0.00	30.292 
21:20	60.9	60.9	60.9	62	47.8	0	0	---	0.00	30.292 
21:25	60.4	60.4	60.4	63	47.7	0	0	---	0.00	30.292 
21:30	60.1	60.1	60.1	63	47.5	0	0	---	0.00	30.293 
21:35	59.8	59.8	59.8	64	47.6	0	0	---	0.00	30.293 
21:40	59.5	59.5	59.5	65	47.7	0	0	---	0.00	30.293 
21:45	59.2	59.2	59.2	65	47.4	0	0	---	0.00	30.295 
21:50	58.9	58.9	58.9	65	47.2	0	0	---	0.00	30.295 
21:55	58.7	58.7	58.7	66	47.4	0	0	---	0.00	30.295 
22:00	58.6	58.6	58.6	65	46.9	0	0	---	0.00	30.295 
22:05	58.6	58.6	58.6	66	47.3	0	0	---	0.00	30.295 
22:10	58.4	58.4	58.4	65	46.7	0	0	---	0.00	30.295 
22:15	58.3	58.3	58.3	66	47.0	0	0	---	0.00	30.297 
22:20	58.3	58.3	58.3	65	46.6	0	0	---	0.00	30.297 
22:25	58.4	58.4	58.4	64	46.3	0	0	---	0.00	30.297 
22:30	58.6	58.6	58.6	63	46.0	0	0	---	0.00	30.302 
22:35	58.6	58.6	58.6	63	46.0	0	0	---	0.00	30.302 
22:40	58.6	58.6	58.6	65	46.9	0	0	---	0.00	30.302 
22:45	58.3	58.3	58.3	66	47.0	0	0	---	0.00	30.300 
22:50	58.0	58.0	58.0	67	47.1	0	0	---	0.00	30.300 
22:55	57.5	57.5	57.5	67	46.6	0	0	---	0.00	30.300 
23:00	57.2	57.2	57.2	67	46.3	0	0	---	0.00	30.300 
23:05	56.7	56.7	56.7	68	46.3	0	0	---	0.00	30.300 
23:10	56.5	56.5	56.5	69	46.5	0	0	---	0.00	30.300 
23:15	56.2	56.2	56.2	70	46.5	0	0	---	0.00	30.302 
23:20	56.0	56.0	56.0	70	46.4	0	0	---	0.00	30.302 
23:25	55.7	55.7	55.7	71	46.4	0	0	---	0.00	30.302 
23:30	55.4	55.4	55.4	72	46.5	0	0	---	0.00	30.308 
23:35	55.1	55.1	55.1	73	46.6	0	0	---	0.00	30.308 
23:40	55.0	55.0	55.0	74	46.9	0	0	---	0.00	30.308 
23:45	54.7	54.7	54.7	74	46.6	0	0	---	0.00	30.303 
23:50	54.5	54.5	54.5	76	47.1	0	0	---	0.00	30.303 
23:55	54.5	54.5	54.5	77	47.4	0	0	---	0.00	30.303 

CoCoRaHS
IN-AL-39
A2 Web Hosting
Creative Commons License
GoDaddy
search engine by freefind advanced

loaded 2018-11-20 07:31:09 • last modified 2010-11-18 10:43:29
Privacy PolicyDisclaimer
• wx.awcolley.com is powered by PmWiki v.2002016 •
• all content (unless otherwise noted) © 2018 A W Colley